Time;durP1;ratioP1;P1;durP2;ratioP2;P2;SDS_P1;SDS_P2;PMS_P1;PMS_P2;Temp;Humidity;BMP_temperature;BMP_pressure;BME280_temperature;BME280_humidity;BME280_pressure;Samples;Min_cycle;Max_cycle;Signal;HPM_P1;HPM_P2
2021/12/01 07:39:13;;;;;;;26.50;14.47;;;1.20;99.90;;;;;;5132880;27;21102;-79
2021/12/01 07:41:42;;;;;;;42.17;22.63;;;1.20;99.90;;;;;;5156717;27;20630;-79
2021/12/01 07:44:09;;;;;;;36.07;21.53;;;1.20;99.90;;;;;;5156888;27;20193;-79
2021/12/01 07:46:36;;;;;;;28.67;14.80;;;1.30;99.90;;;;;;5156859;27;20285;-79
2021/12/01 07:49:03;;;;;;;33.53;18.27;;;1.30;99.90;;;;;;5156491;27;20245;-79
2021/12/01 07:51:30;;;;;;;43.53;23.73;;;1.30;99.90;;;;;;5156725;27;20663;-79
2021/12/01 07:54:03;;;;;;;41.53;21.40;;;1.30;99.90;;;;;;5168650;27;20185;-83
2021/12/01 07:56:33;;;;;;;22.97;14.47;;;1.40;99.90;;;;;;5174162;27;20631;-81
2021/12/01 07:59:04;;;;;;;27.97;14.93;;;1.40;99.90;;;;;;5172217;27;20200;-79
2021/12/01 08:01:32;;;;;;;20.33;10.70;;;1.40;99.90;;;;;;5173359;27;20185;-82
2021/12/01 08:04:03;;;;;;;18.50;10.37;;;1.50;99.90;;;;;;5178959;27;20186;-81
2021/12/01 08:06:33;;;;;;;17.23;8.57;;;1.50;99.90;;;;;;5179690;27;20195;-83
2021/12/01 08:09:04;;;;;;;17.00;9.07;;;1.50;99.90;;;;;;5179774;27;20185;-81
2021/12/01 08:11:33;;;;;;;20.60;7.77;;;1.50;99.90;;;;;;5179734;27;20184;-80
2021/12/01 08:14:02;;;;;;;23.27;18.13;;;1.60;99.90;;;;;;5178124;27;20182;-81
2021/12/01 08:16:37;;;;;;;20.03;14.63;;;1.60;99.90;;;;;;5179119;27;20182;-81
2021/12/01 08:19:07;;;;;;;16.50;8.13;;;1.60;99.90;;;;;;5179502;27;20217;-84
2021/12/01 08:21:37;;;;;;;13.70;7.30;;;1.70;99.90;;;;;;5178485;27;20189;-79
2021/12/01 08:24:06;;;;;;;13.83;7.67;;;1.70;99.90;;;;;;5179340;27;20189;-83
2021/12/01 08:26:33;;;;;;;12.00;7.03;;;1.70;99.90;;;;;;5178763;27;20256;-81
2021/12/01 08:29:02;;;;;;;26.60;11.80;;;1.70;99.90;;;;;;5178663;27;20221;-81
2021/12/01 08:31:32;;;;;;;26.47;9.47;;;1.70;99.90;;;;;;5179735;27;20169;-81
2021/12/01 08:33:59;;;;;;;18.67;8.20;;;1.80;99.90;;;;;;5179788;27;20201;-82
2021/12/01 08:36:27;;;;;;;20.80;11.40;;;1.80;99.90;;;;;;5165573;27;20202;-83
2021/12/01 08:38:55;;;;;;;18.80;9.17;;;1.80;99.90;;;;;;5156063;27;20292;-83
2021/12/01 08:41:29;;;;;;;12.50;7.30;;;1.80;99.90;;;;;;5155872;27;20225;-80
2021/12/01 08:44:03;;;;;;;17.93;8.33;;;1.80;99.90;;;;;;5156321;27;20246;-86
2021/12/01 08:46:44;;;;;;;59.03;24.60;;;1.90;99.90;;;;;;5156799;27;20231;-84
2021/12/01 08:49:19;;;;;;;17.53;8.50;;;1.90;99.90;;;;;;5156309;27;20546;-84
2021/12/01 08:51:47;;;;;;;17.63;7.40;;;1.90;99.90;;;;;;5156263;27;20680;-85
2021/12/01 08:54:15;;;;;;;26.27;11.43;;;1.90;99.90;;;;;;5155477;27;20189;-83
2021/12/01 08:56:48;;;;;;;15.37;6.97;;;1.90;99.90;;;;;;5155756;27;20279;-82
2021/12/01 08:59:20;;;;;;;16.87;9.20;;;2.00;99.90;;;;;;5155203;27;20214;-84
2021/12/01 09:01:56;;;;;;;17.93;8.87;;;2.00;99.90;;;;;;5155645;27;20224;-81
2021/12/01 09:04:26;;;;;;;16.10;8.13;;;1.90;99.90;;;;;;5155143;27;20250;-82
2021/12/01 09:06:53;;;;;;;12.90;6.43;;;1.90;99.90;;;;;;5151619;27;20598;-79
2021/12/01 09:09:20;;;;;;;19.37;11.40;;;1.90;99.90;;;;;;5153968;27;20189;-79
2021/12/01 09:11:47;;;;;;;16.13;8.43;;;1.90;99.90;;;;;;5155108;27;20250;-79
2021/12/01 09:14:15;;;;;;;16.57;7.87;;;2.00;99.90;;;;;;5154744;27;20653;-80
2021/12/01 09:16:42;;;;;;;15.27;7.30;;;1.90;99.90;;;;;;5154003;27;20523;-80
2021/12/01 09:19:10;;;;;;;16.30;7.93;;;1.90;99.90;;;;;;5154535;27;20223;-80
2021/12/01 09:21:38;;;;;;;14.73;6.90;;;2.00;99.90;;;;;;5154422;27;20193;-80
2021/12/01 09:24:06;;;;;;;18.53;8.97;;;2.00;99.90;;;;;;5155187;27;20245;-79
2021/12/01 09:26:33;;;;;;;15.40;7.47;;;2.00;99.90;;;;;;5154871;27;20189;-80
2021/12/01 09:29:01;;;;;;;25.67;10.97;;;2.00;99.90;;;;;;5154882;27;20198;-79
2021/12/01 09:31:29;;;;;;;15.53;7.90;;;1.90;99.90;;;;;;5153893;27;20773;-79
2021/12/01 09:33:56;;;;;;;14.63;6.97;;;2.00;99.90;;;;;;5154408;27;20523;-80
2021/12/01 09:36:25;;;;;;;18.13;7.93;;;1.90;99.90;;;;;;5153954;27;20181;-79
2021/12/01 09:38:52;;;;;;;12.17;7.00;;;2.00;99.90;;;;;;5153778;27;20214;-79
2021/12/01 09:41:19;;;;;;;17.23;8.80;;;2.00;99.90;;;;;;5152301;27;20217;-79
2021/12/01 09:43:46;;;;;;;14.97;8.37;;;2.00;99.90;;;;;;5154313;27;20243;-79
2021/12/01 09:46:13;;;;;;;13.17;7.60;;;2.00;99.90;;;;;;5154665;27;20241;-79
2021/12/01 09:48:43;;;;;;;15.80;7.40;;;2.00;99.90;;;;;;5154270;27;20189;-79
2021/12/01 09:51:11;;;;;;;13.63;7.73;;;2.00;99.90;;;;;;5154183;27;20193;-80
2021/12/01 09:53:39;;;;;;;12.17;6.90;;;2.00;99.90;;;;;;5154580;27;20227;-80
2021/12/01 09:56:07;;;;;;;18.90;11.47;;;2.00;99.90;;;;;;5154906;27;20194;-79
2021/12/01 09:58:35;;;;;;;17.83;12.53;;;2.10;99.90;;;;;;5153950;27;20214;-79
2021/12/01 10:01:06;;;;;;;15.50;9.10;;;2.10;99.90;;;;;;5154384;27;20193;-79
2021/12/01 10:03:34;;;;;;;18.30;12.20;;;2.10;99.90;;;;;;5154070;27;20634;-79
2021/12/01 10:06:03;;;;;;;18.50;10.20;;;2.10;99.90;;;;;;5153671;27;20249;-79
2021/12/01 10:08:34;;;;;;;17.03;10.40;;;2.20;99.90;;;;;;5153788;27;20244;-80
2021/12/01 10:11:04;;;;;;;16.17;8.93;;;2.20;99.90;;;;;;5153847;27;20632;-79
2021/12/01 10:13:37;;;;;;;18.73;9.13;;;2.30;99.90;;;;;;5154185;27;20197;-79
2021/12/01 10:16:06;;;;;;;19.20;9.97;;;2.30;99.90;;;;;;5153847;27;20274;-79
2021/12/01 10:18:40;;;;;;;14.10;9.87;;;2.30;99.90;;;;;;5153431;27;20710;-79
2021/12/01 10:21:10;;;;;;;26.80;16.07;;;2.40;99.90;;;;;;5154341;27;20186;-79
2021/12/01 10:23:42;;;;;;;24.80;16.93;;;2.40;99.90;;;;;;5154454;27;20198;-79
2021/12/01 10:26:19;;;;;;;27.77;17.20;;;2.40;99.90;;;;;;5153504;27;20183;-80
2021/12/01 10:28:48;;;;;;;16.13;10.80;;;2.40;99.90;;;;;;5153556;27;20272;-79
2021/12/01 10:31:16;;;;;;;22.83;13.10;;;2.50;99.90;;;;;;5153928;27;20191;-79
2021/12/01 10:33:44;;;;;;;17.47;10.70;;;2.60;99.90;;;;;;5153677;27;20706;-80
2021/12/01 10:36:13;;;;;;;15.70;10.23;;;2.60;99.90;;;;;;5154656;27;20195;-79
2021/12/01 10:38:45;;;;;;;19.70;9.37;;;2.60;99.90;;;;;;5158120;27;20211;-79
2021/12/01 10:41:16;;;;;;;17.23;11.97;;;2.70;99.90;;;;;;5157673;27;20695;-80
2021/12/01 10:43:46;;;;;;;12.50;8.37;;;2.70;99.90;;;;;;5158111;27;20181;-80
2021/12/01 10:46:17;;;;;;;17.93;11.10;;;2.80;99.90;;;;;;5157869;27;20173;-79
2021/12/01 10:48:46;;;;;;;24.20;16.47;;;2.90;99.90;;;;;;5157303;27;20609;-80
2021/12/01 10:51:32;;;;;;;19.17;12.50;;;2.90;99.90;;;;;;5157861;27;20190;-80
2021/12/01 10:54:00;;;;;;;24.00;16.67;;;2.90;99.90;;;;;;5157580;27;20643;-80
2021/12/01 10:56:29;;;;;;;26.63;17.77;;;3.00;99.90;;;;;;5157323;27;20284;-80
2021/12/01 10:58:56;;;;;;;15.03;9.23;;;3.00;99.90;;;;;;5157760;27;20268;-80
2021/12/01 11:01:24;;;;;;;32.80;18.30;;;3.10;99.90;;;;;;5157739;27;20646;-80
2021/12/01 11:03:54;;;;;;;20.53;13.67;;;3.10;99.90;;;;;;5165310;27;20185;-82
2021/12/01 11:06:23;;;;;;;20.57;15.47;;;3.10;99.90;;;;;;5169252;27;20189;-82
2021/12/01 11:08:57;;;;;;;18.93;12.73;;;3.20;99.90;;;;;;5157387;27;20196;-85
2021/12/01 11:12:07;;;;;;;;;;;;;;;;;;;;;
2021/12/01 11:14:56;;;;;;;20.27;14.57;;;3.30;99.90;;;;;;5173927;27;20187;-81
2021/12/01 11:17:55;;;;;;;17.17;14.20;;;3.30;99.90;;;;;;5162422;27;20185;-82
2021/12/01 11:21:05;;;;;;;18.87;13.23;;;3.40;99.90;;;;;;5174650;27;20233;-82
2021/12/01 11:26:49;;;;;;;14.47;10.67;;;3.40;99.90;;;;;;5157031;27;20189;-79
2021/12/01 11:29:16;;;;;;;17.30;9.03;;;3.50;99.90;;;;;;5157119;27;20193;-78
2021/12/01 11:31:46;;;;;;;16.93;11.20;;;3.60;99.90;;;;;;5156936;27;20245;-79
2021/12/01 11:34:15;;;;;;;15.10;8.63;;;3.60;99.90;;;;;;5156573;27;20182;-78
2021/12/01 11:36:48;;;;;;;15.47;9.07;;;3.60;99.90;;;;;;5156901;27;20188;-79
2021/12/01 11:39:18;;;;;;;15.23;8.97;;;3.70;99.90;;;;;;5156934;27;20205;-78
2021/12/01 11:41:49;;;;;;;14.63;8.63;;;3.70;99.90;;;;;;5156712;27;20228;-78
2021/12/01 11:44:18;;;;;;;15.93;8.20;;;3.80;99.90;;;;;;5156949;27;20192;-78
2021/12/01 11:46:45;;;;;;;12.53;8.13;;;3.80;99.90;;;;;;5155557;27;20276;-78
2021/12/01 11:49:15;;;;;;;15.30;9.30;;;3.90;99.90;;;;;;5155968;27;20625;-78
2021/12/01 11:51:46;;;;;;;27.57;15.17;;;3.90;99.90;;;;;;5156846;27;20185;-79
2021/12/01 11:54:18;;;;;;;20.83;13.87;;;4.00;99.90;;;;;;5156058;27;20181;-79
2021/12/01 11:56:53;;;;;;;21.27;13.00;;;4.00;99.90;;;;;;5153645;27;20177;-79
2021/12/01 11:59:25;;;;;;;15.77;10.23;;;4.10;99.90;;;;;;5165212;27;20650;-83
2021/12/01 12:05:05;;;;;;;15.63;10.87;;;4.20;99.90;;;;;;5176128;27;20184;-82
2021/12/01 12:11:40;;;;;;;13.47;9.13;;;4.30;99.90;;;;;;5138548;27;20220;-78
2021/12/01 12:14:11;;;;;;;17.33;9.87;;;4.30;99.90;;;;;;5150693;27;20189;-78
2021/12/01 12:16:39;;;;;;;18.23;9.73;;;4.40;99.90;;;;;;5156827;27;20231;-78
2021/12/01 12:19:07;;;;;;;15.70;10.07;;;4.40;99.90;;;;;;5155817;27;20213;-78
2021/12/01 12:21:39;;;;;;;15.40;9.20;;;4.50;99.90;;;;;;5155912;27;20189;-78
2021/12/01 12:24:10;;;;;;;16.43;11.17;;;4.50;99.90;;;;;;5155783;27;20178;-78
2021/12/01 12:26:40;;;;;;;14.37;9.33;;;4.60;99.90;;;;;;5155859;27;20273;-78
2021/12/01 12:29:15;;;;;;;14.37;9.87;;;4.60;99.90;;;;;;5156076;27;20181;-78
2021/12/01 12:31:43;;;;;;;17.37;12.23;;;4.60;99.90;;;;;;5156032;27;20177;-77
2021/12/01 12:34:15;;;;;;;19.00;11.87;;;4.70;99.90;;;;;;5155218;27;20211;-78
2021/12/01 12:36:45;;;;;;;20.63;12.80;;;4.70;99.90;;;;;;5153846;27;20177;-79
2021/12/01 12:39:15;;;;;;;13.43;9.97;;;4.80;99.90;;;;;;5154593;27;20229;-78
2021/12/01 12:42:12;;;;;;;22.10;15.47;;;4.80;99.90;;;;;;5154788;27;20180;-79
2021/12/01 12:44:43;;;;;;;13.00;8.27;;;4.80;99.90;;;;;;5152362;27;20184;-80
2021/12/01 12:47:13;;;;;;;15.70;10.97;;;4.90;99.90;;;;;;5155583;27;20177;-79
2021/12/01 12:49:42;;;;;;;17.50;11.73;;;4.90;99.90;;;;;;5154891;27;20306;-80
2021/12/01 12:52:35;;;;;;;13.17;9.03;;;5.00;99.90;;;;;;5153757;27;20246;-79
2021/12/01 12:55:05;;;;;;;14.73;10.70;;;5.00;99.90;;;;;;5132196;27;20185;-80
2021/12/01 12:57:49;;;;;;;13.80;8.37;;;5.10;99.90;;;;;;5155151;27;20181;-79
2021/12/01 13:00:21;;;;;;;14.10;8.93;;;5.10;99.90;;;;;;5153475;27;20269;-79
2021/12/01 13:02:49;;;;;;;14.47;9.87;;;5.20;99.90;;;;;;5154992;27;20185;-79
2021/12/01 13:05:29;;;;;;;13.77;9.37;;;5.30;99.90;;;;;;5155485;27;20194;-79
2021/12/01 13:07:56;;;;;;;13.70;9.67;;;5.30;99.90;;;;;;5155092;27;20221;-80
2021/12/01 13:10:28;;;;;;;14.93;9.03;;;5.30;99.90;;;;;;5155209;27;20527;-79
2021/12/01 13:13:02;;;;;;;10.83;7.93;;;5.40;99.90;;;;;;5154638;27;20198;-79
2021/12/01 13:15:39;;;;;;;12.20;8.83;;;5.40;99.90;;;;;;5155329;27;20189;-80
2021/12/01 13:18:10;;;;;;;10.93;8.00;;;5.40;99.90;;;;;;5154903;27;20709;-79
2021/12/01 13:20:39;;;;;;;8.77;7.20;;;5.50;99.90;;;;;;5154663;27;20593;-79
2021/12/01 13:23:09;;;;;;;8.93;6.43;;;5.50;99.90;;;;;;5154237;27;21097;-79
2021/12/01 13:25:40;;;;;;;10.43;7.67;;;5.60;99.90;;;;;;5155052;27;20185;-80
2021/12/01 13:28:08;;;;;;;11.10;8.33;;;5.60;99.90;;;;;;5154732;27;20272;-79
2021/12/01 13:30:55;;;;;;;8.90;7.67;;;5.60;99.90;;;;;;5154610;27;20592;-79
2021/12/01 13:33:22;;;;;;;11.20;8.67;;;5.60;99.90;;;;;;5154945;27;20186;-79
2021/12/01 13:35:49;;;;;;;11.57;7.83;;;5.70;99.90;;;;;;5154368;27;20717;-79
2021/12/01 13:38:28;;;;;;;12.97;8.63;;;5.70;99.90;;;;;;5154404;27;20645;-79
2021/12/01 13:40:55;;;;;;;26.43;20.47;;;5.70;99.90;;;;;;5153967;27;20273;-80
2021/12/01 13:43:23;;;;;;;10.43;7.97;;;5.70;99.90;;;;;;5154354;27;20193;-79
2021/12/01 13:45:59;;;;;;;13.53;11.90;;;5.70;99.90;;;;;;5154356;27;20646;-80
2021/12/01 13:48:28;;;;;;;59.47;52.97;;;5.80;99.90;;;;;;5154505;27;20262;-79
2021/12/01 13:51:07;;;;;;;14.60;11.87;;;5.80;99.90;;;;;;5154123;27;20521;-79
2021/12/01 13:53:34;;;;;;;19.67;17.77;;;5.80;99.90;;;;;;5151543;27;20173;-79
2021/12/01 13:56:07;;;;;;;9.10;7.67;;;5.80;99.90;;;;;;5154168;27;20197;-79
2021/12/01 13:58:34;;;;;;;11.33;7.97;;;5.80;99.90;;;;;;5154132;27;20584;-79
2021/12/01 14:01:06;;;;;;;12.67;9.90;;;5.80;99.90;;;;;;5153163;27;20202;-79
2021/12/01 14:03:38;;;;;;;21.70;17.93;;;5.80;99.90;;;;;;5154036;27;20181;-79
2021/12/01 14:06:14;;;;;;;24.10;20.03;;;5.90;99.90;;;;;;5151128;27;20186;-79
2021/12/01 14:08:49;;;;;;;14.33;12.67;;;5.90;99.90;;;;;;5153438;27;20186;-78
2021/12/01 14:11:35;;;;;;;18.73;15.20;;;5.90;99.90;;;;;;5149463;27;20674;-79
2021/12/01 14:14:05;;;;;;;13.33;11.53;;;5.90;99.90;;;;;;5153156;27;20678;-79
2021/12/01 14:16:38;;;;;;;13.53;10.40;;;5.90;99.90;;;;;;5153443;27;20193;-79
2021/12/01 14:19:06;;;;;;;12.30;10.60;;;5.90;99.90;;;;;;5150475;27;20206;-79
2021/12/01 14:21:35;;;;;;;12.70;10.33;;;5.90;99.90;;;;;;5154211;27;20285;-79
2021/12/01 14:24:10;;;;;;;16.70;11.47;;;5.80;99.90;;;;;;5154129;27;20186;-79
2021/12/01 14:26:40;;;;;;;15.43;11.77;;;5.90;99.90;;;;;;5153878;27;20182;-79
2021/12/01 14:29:10;;;;;;;16.83;12.73;;;5.90;99.90;;;;;;5153514;27;20610;-78
2021/12/01 14:31:39;;;;;;;11.67;8.40;;;5.90;99.90;;;;;;5154208;27;20190;-78
2021/12/01 14:34:10;;;;;;;9.60;6.97;;;5.90;99.90;;;;;;5153995;27;20255;-79
2021/12/01 14:36:41;;;;;;;8.70;7.37;;;5.90;99.90;;;;;;5154044;27;20174;-79
2021/12/01 14:39:13;;;;;;;9.00;7.17;;;5.90;99.90;;;;;;5153568;27;20548;-79
2021/12/01 14:41:40;;;;;;;8.30;5.83;;;5.90;99.90;;;;;;5154130;27;20239;-78
2021/12/01 14:44:11;;;;;;;9.00;6.37;;;5.90;99.90;;;;;;5153974;27;20193;-78
2021/12/01 14:46:40;;;;;;;12.00;8.30;;;5.90;99.90;;;;;;5153685;27;20234;-78
2021/12/01 14:49:10;;;;;;;12.63;7.80;;;5.90;99.90;;;;;;5149446;27;20231;-79
2021/12/01 14:51:41;;;;;;;12.17;7.40;;;5.90;99.90;;;;;;5153444;27;20193;-79
2021/12/01 14:54:14;;;;;;;8.60;6.00;;;5.90;99.90;;;;;;5153626;27;20234;-78
2021/12/01 14:56:54;;;;;;;15.27;9.23;;;6.00;99.90;;;;;;5153347;27;20189;-78
2021/12/01 14:59:22;;;;;;;13.23;9.07;;;6.00;99.90;;;;;;5151439;27;20257;-79
2021/12/01 15:02:18;;;;;;;10.13;7.40;;;6.00;99.90;;;;;;5153721;27;20188;-78
2021/12/01 15:05:02;;;;;;;8.40;6.70;;;6.00;99.90;;;;;;5153864;27;20188;-78
2021/12/01 15:07:31;;;;;;;7.77;6.20;;;6.00;99.90;;;;;;5153591;27;20182;-79
2021/12/01 15:10:09;;;;;;;5.93;5.33;;;6.00;99.90;;;;;;5153683;27;20270;-78
2021/12/01 15:12:37;;;;;;;8.90;6.97;;;6.10;99.90;;;;;;5153797;27;20234;-78
2021/12/01 15:15:23;;;;;;;11.63;8.03;;;6.00;99.90;;;;;;5152790;27;20232;-79
2021/12/01 15:18:04;;;;;;;9.07;7.20;;;6.00;99.90;;;;;;5152698;27;20188;-78
2021/12/01 15:20:35;;;;;;;32.73;21.13;;;6.10;99.90;;;;;;5153178;27;20259;-81
2021/12/01 15:23:11;;;;;;;44.27;26.13;;;6.10;99.90;;;;;;5177456;27;20176;-81
2021/12/01 15:25:42;;;;;;;8.33;6.57;;;6.10;99.90;;;;;;5179447;27;20222;-78
2021/12/01 15:28:12;;;;;;;27.17;16.60;;;6.10;99.90;;;;;;5176386;27;20183;-78
2021/12/01 15:30:50;;;;;;;76.77;38.03;;;6.10;99.90;;;;;;5172301;27;20189;-80
2021/12/01 15:33:23;;;;;;;23.17;15.30;;;6.10;99.90;;;;;;5156357;27;20178;-80
2021/12/01 15:35:55;;;;;;;18.53;12.43;;;6.20;99.90;;;;;;5167812;27;20178;-79
2021/12/01 15:38:34;;;;;;;16.23;9.87;;;6.20;99.90;;;;;;5178730;27;20192;-84
2021/12/01 15:41:02;;;;;;;13.70;9.77;;;6.20;99.90;;;;;;5178618;27;20224;-83
2021/12/01 15:43:37;;;;;;;8.47;7.33;;;6.20;99.90;;;;;;5178469;27;20198;-77
2021/12/01 15:46:12;;;;;;;12.07;9.80;;;6.20;99.90;;;;;;5177164;27;20155;-76
2021/12/01 15:48:49;;;;;;;11.83;9.10;;;6.20;99.90;;;;;;5177856;27;20204;-76
2021/12/01 15:54:03;;;;;;;12.90;9.27;;;6.20;99.90;;;;;;5175604;27;20190;-82
2021/12/01 15:56:38;;;;;;;7.47;5.87;;;6.20;99.90;;;;;;5177190;27;20183;-79
2021/12/01 15:59:08;;;;;;;17.53;13.77;;;6.30;99.90;;;;;;5177289;27;20270;-81
2021/12/01 16:01:38;;;;;;;16.77;11.87;;;6.30;99.90;;;;;;5176502;27;20215;-77
2021/12/01 16:04:12;;;;;;;13.60;9.57;;;6.30;99.90;;;;;;5177914;27;20199;-80
2021/12/01 16:06:42;;;;;;;18.33;14.33;;;6.30;99.90;;;;;;5177249;27;20193;-82
2021/12/01 16:09:13;;;;;;;12.47;9.33;;;6.30;99.90;;;;;;5161216;27;20190;-82
2021/12/01 16:11:56;;;;;;;15.00;11.93;;;6.30;99.90;;;;;;5157526;27;20218;-83
2021/12/01 16:14:35;;;;;;;11.47;8.73;;;6.30;99.90;;;;;;5157465;27;20198;-79
2021/12/01 16:17:11;;;;;;;11.37;9.83;;;6.30;99.90;;;;;;5157596;27;20190;-83
2021/12/01 16:20:07;;;;;;;12.60;8.03;;;6.30;99.90;;;;;;5157550;27;20289;-81
2021/12/01 16:25:59;;;;;;;11.50;8.97;;;6.30;99.90;;;;;;5059867;28;20202;-79
2021/12/01 16:28:34;;;;;;;10.70;7.07;;;6.30;99.90;;;;;;5109828;27;20260;-81
2021/12/01 16:31:06;;;;;;;12.93;8.57;;;6.30;99.90;;;;;;5156364;27;20198;-83
2021/12/01 16:33:43;;;;;;;11.50;7.70;;;6.30;99.90;;;;;;5155574;27;20202;-82
2021/12/01 16:36:28;;;;;;;9.67;7.50;;;6.30;99.90;;;;;;5156685;27;20262;-82
2021/12/01 16:39:28;;;;;;;13.50;9.20;;;6.30;99.90;;;;;;5156758;27;20198;-80
2021/12/01 16:41:58;;;;;;;10.07;7.43;;;6.30;99.90;;;;;;5155801;27;20294;-79
2021/12/01 16:44:25;;;;;;;10.97;7.80;;;6.30;99.90;;;;;;5154550;27;20639;-78
2021/12/01 16:46:52;;;;;;;15.87;10.30;;;6.30;99.90;;;;;;5155103;27;20179;-79
2021/12/01 16:49:21;;;;;;;13.73;11.10;;;6.30;99.90;;;;;;5155930;27;20252;-79
2021/12/01 16:51:49;;;;;;;12.17;9.77;;;6.40;99.90;;;;;;5154995;27;20246;-78
2021/12/01 16:54:16;;;;;;;17.93;13.23;;;6.30;99.90;;;;;;5155454;27;20242;-79
2021/12/01 16:56:43;;;;;;;12.90;8.90;;;6.40;99.90;;;;;;5155231;27;20232;-78
2021/12/01 16:59:11;;;;;;;9.90;6.90;;;6.40;99.90;;;;;;5155246;27;20146;-79
2021/12/01 17:01:39;;;;;;;13.20;9.47;;;6.40;99.90;;;;;;5154209;27;20538;-78
2021/12/01 17:10:29;;;;;;;8.27;5.60;;;6.40;99.90;;;;;;5110908;28;20200;-83
2021/12/01 17:12:56;;;;;;;19.67;9.87;;;6.40;99.90;;;;;;5107499;28;20648;-77
2021/12/01 17:15:38;;;;;;;18.00;9.63;;;6.40;99.90;;;;;;5110499;28;20597;-78
2021/12/01 17:18:07;;;;;;;12.13;7.77;;;6.50;99.90;;;;;;5110024;28;20180;-78
2021/12/01 17:20:34;;;;;;;20.37;11.70;;;6.50;99.90;;;;;;5110052;28;20320;-77
2021/12/01 17:23:03;;;;;;;53.03;28.80;;;6.50;99.90;;;;;;5109730;28;20183;-78
2021/12/01 17:25:35;;;;;;;52.07;34.13;;;6.50;99.90;;;;;;5109738;28;20185;-78
2021/12/01 17:28:02;;;;;;;21.73;13.33;;;6.50;99.90;;;;;;5109719;28;20234;-76
2021/12/01 17:30:42;;;;;;;12.27;8.60;;;6.50;99.90;;;;;;5109766;28;20196;-78
2021/12/01 17:33:10;;;;;;;21.67;13.80;;;6.50;99.90;;;;;;5109551;28;20239;-76
2021/12/01 17:35:38;;;;;;;19.57;13.73;;;6.50;99.90;;;;;;5109456;28;20566;-77
2021/12/01 17:38:06;;;;;;;16.20;11.60;;;6.50;99.90;;;;;;5107107;28;20188;-75
2021/12/01 17:40:34;;;;;;;16.00;10.73;;;6.60;99.90;;;;;;5123678;27;20299;-76
2021/12/01 17:43:02;;;;;;;10.47;7.17;;;6.60;99.90;;;;;;5152793;27;20190;-76
2021/12/01 17:45:31;;;;;;;17.80;14.47;;;6.60;99.90;;;;;;5153023;27;20186;-76
2021/12/01 17:47:58;;;;;;;10.73;8.10;;;6.60;99.90;;;;;;5153899;27;20578;-76
2021/12/01 17:50:26;;;;;;;13.33;9.80;;;6.60;99.90;;;;;;5153113;27;20183;-78
2021/12/01 17:52:53;;;;;;;11.70;8.63;;;6.70;99.90;;;;;;5152782;27;20188;-76
2021/12/01 17:55:23;;;;;;;22.57;12.70;;;6.70;99.90;;;;;;5152887;27;20244;-76
2021/12/01 17:57:50;;;;;;;16.93;10.70;;;6.70;99.90;;;;;;5153112;27;20184;-78
2021/12/01 18:00:21;;;;;;;10.40;7.60;;;6.70;99.90;;;;;;5152812;27;20187;-77
2021/12/01 18:02:56;;;;;;;11.20;8.07;;;6.70;99.90;;;;;;5154910;27;20259;-78
2021/12/01 18:05:49;;;;;;;15.60;9.80;;;6.70;99.90;;;;;;5165515;27;20180;-81
2021/12/01 18:08:17;;;;;;;13.53;7.67;;;6.70;99.90;;;;;;5163901;27;20204;-82
2021/12/01 18:10:48;;;;;;;10.00;6.80;;;6.70;99.90;;;;;;5175505;27;20221;-83
2021/12/01 18:13:15;;;;;;;10.97;6.67;;;6.70;99.90;;;;;;5163002;27;20271;-77
2021/12/01 18:15:42;;;;;;;11.23;5.87;;;6.80;99.90;;;;;;5154197;27;20294;-78
2021/12/01 18:18:11;;;;;;;7.13;4.80;;;6.80;99.90;;;;;;5154428;27;20191;-79
2021/12/01 18:20:38;;;;;;;9.83;5.60;;;6.80;99.90;;;;;;5154298;27;20206;-82
2021/12/01 18:23:06;;;;;;;7.80;4.97;;;6.80;99.90;;;;;;5153869;27;20558;-78
2021/12/01 18:25:34;;;;;;;7.33;4.63;;;6.80;99.90;;;;;;5154286;27;20203;-79
2021/12/01 18:28:04;;;;;;;9.90;6.57;;;6.80;99.90;;;;;;5153687;27;20200;-78
2021/12/01 18:30:33;;;;;;;10.70;7.50;;;6.90;99.90;;;;;;5153988;27;20203;-79
2021/12/01 18:33:03;;;;;;;9.77;6.00;;;6.90;99.90;;;;;;5153921;27;20204;-79
2021/12/01 18:35:30;;;;;;;8.50;5.60;;;6.90;99.90;;;;;;5153954;27;20200;-81
2021/12/01 18:37:58;;;;;;;10.60;6.00;;;6.90;99.90;;;;;;5154127;27;20198;-79
2021/12/01 18:40:25;;;;;;;9.77;5.40;;;6.90;99.90;;;;;;5153482;27;20582;-79
2021/12/01 18:42:53;;;;;;;9.03;5.47;;;6.90;99.90;;;;;;5153830;27;20276;-79
2021/12/01 18:45:25;;;;;;;6.77;4.07;;;6.90;99.90;;;;;;5153634;27;20192;-78
2021/12/01 18:47:54;;;;;;;6.17;4.37;;;6.90;99.90;;;;;;5151189;27;20258;-77
2021/12/01 18:50:22;;;;;;;7.47;4.57;;;6.90;99.90;;;;;;5153052;27;20641;-79
2021/12/01 18:52:49;;;;;;;5.40;3.93;;;6.90;99.90;;;;;;5154074;27;20198;-79
2021/12/01 18:55:17;;;;;;;8.27;5.83;;;6.90;99.90;;;;;;5154003;27;20183;-78
2021/12/01 18:57:52;;;;;;;26.67;23.30;;;6.90;99.90;;;;;;5156454;27;20196;-80
2021/12/01 19:00:30;;;;;;;10.60;8.83;;;7.00;99.90;;;;;;5157352;27;20199;-79
2021/12/01 19:02:57;;;;;;;5.93;4.40;;;7.00;99.90;;;;;;5157250;27;20207;-78
2021/12/01 19:05:30;;;;;;;7.40;5.73;;;7.00;99.90;;;;;;5155465;27;20242;-86
2021/12/01 19:07:57;;;;;;;6.40;4.90;;;7.00;99.90;;;;;;5153359;27;20199;-81
2021/12/01 19:10:27;;;;;;;12.97;11.03;;;7.00;99.90;;;;;;5157194;27;20186;-80
2021/12/01 19:12:55;;;;;;;6.60;4.73;;;7.10;99.90;;;;;;5156870;27;20193;-80
2021/12/01 19:15:22;;;;;;;8.17;6.27;;;7.10;99.90;;;;;;5156385;27;20193;-78
2021/12/01 19:17:52;;;;;;;6.90;5.33;;;7.10;99.90;;;;;;5157320;27;20526;-78
2021/12/01 19:20:21;;;;;;;15.27;12.63;;;7.10;99.90;;;;;;5157578;27;20240;-79
2021/12/01 19:22:49;;;;;;;20.47;15.67;;;7.10;99.90;;;;;;5156915;27;20211;-79
2021/12/01 19:25:17;;;;;;;8.30;5.77;;;7.20;99.90;;;;;;5156848;27;20614;-79
2021/12/01 19:27:46;;;;;;;10.83;8.17;;;7.20;99.90;;;;;;5156456;27;20197;-78
2021/12/01 19:30:23;;;;;;;7.60;5.70;;;7.20;99.90;;;;;;5156598;27;20648;-81
2021/12/01 19:32:53;;;;;;;7.17;4.97;;;7.20;99.90;;;;;;5154190;27;20194;-79
2021/12/01 19:35:22;;;;;;;5.43;4.03;;;7.20;99.90;;;;;;5156759;27;20178;-77
2021/12/01 19:37:49;;;;;;;4.97;2.67;;;7.30;99.90;;;;;;5155886;27;20583;-79
2021/12/01 19:40:21;;;;;;;5.47;4.03;;;7.30;99.90;;;;;;5156034;27;20703;-80
2021/12/01 19:42:49;;;;;;;5.80;4.20;;;7.30;99.90;;;;;;5156062;27;20204;-80
2021/12/01 19:45:17;;;;;;;6.43;5.73;;;7.40;99.90;;;;;;5156720;27;20275;-81
2021/12/01 19:47:45;;;;;;;8.43;6.73;;;7.40;99.90;;;;;;5156823;27;20189;-80
2021/12/01 19:50:16;;;;;;;9.40;7.80;;;7.40;99.90;;;;;;5155993;27;20571;-82
2021/12/01 19:52:44;;;;;;;2.93;2.47;;;7.40;99.90;;;;;;5157023;27;20201;-81
2021/12/01 19:55:12;;;;;;;3.97;2.80;;;7.40;99.90;;;;;;5156615;27;20679;-82
2021/12/01 19:57:40;;;;;;;3.83;2.60;;;7.50;99.90;;;;;;5156403;27;20196;-81
2021/12/01 20:00:10;;;;;;;5.83;4.20;;;7.50;99.90;;;;;;5156663;27;20208;-79
2021/12/01 20:02:38;;;;;;;4.57;3.60;;;7.50;99.90;;;;;;5156594;27;20224;-82
2021/12/01 20:05:08;;;;;;;3.77;2.77;;;7.50;99.90;;;;;;5152581;27;20276;-79
2021/12/01 20:07:37;;;;;;;6.93;5.83;;;7.60;99.90;;;;;;5155148;27;20633;-78
2021/12/01 20:10:10;;;;;;;5.63;4.33;;;7.60;99.90;;;;;;5156019;27;20218;-80
2021/12/01 20:12:37;;;;;;;9.03;8.00;;;7.60;99.90;;;;;;5156536;27;20253;-83
2021/12/01 20:15:07;;;;;;;7.57;5.37;;;7.60;99.90;;;;;;5156453;27;20197;-81
2021/12/01 20:17:34;;;;;;;3.80;2.70;;;7.60;99.90;;;;;;5135753;27;20196;-80
2021/12/01 20:20:01;;;;;;;6.53;5.30;;;7.60;99.90;;;;;;5135500;27;20196;-80
2021/12/01 20:22:32;;;;;;;5.17;3.70;;;7.60;99.90;;;;;;5139626;27;20304;-80
2021/12/01 20:25:05;;;;;;;4.87;3.10;;;7.60;99.90;;;;;;5156670;27;20200;-79
2021/12/01 20:27:32;;;;;;;6.13;3.80;;;7.60;99.90;;;;;;5156343;27;20188;-80
2021/12/01 20:29:59;;;;;;;7.17;3.60;;;7.60;99.90;;;;;;5155789;27;20194;-77
2021/12/01 20:32:27;;;;;;;9.33;4.57;;;7.60;99.90;;;;;;5156414;27;20546;-79
2021/12/01 20:34:55;;;;;;;5.50;3.00;;;7.60;99.90;;;;;;5155616;27;20573;-80
2021/12/01 20:37:23;;;;;;;5.13;2.77;;;7.60;99.90;;;;;;5155485;27;20204;-79
2021/12/01 20:39:51;;;;;;;6.27;3.13;;;7.60;99.90;;;;;;5155600;27;20686;-79
2021/12/01 20:42:22;;;;;;;7.50;4.10;;;7.60;99.90;;;;;;5155846;27;20224;-78
2021/12/01 20:44:51;;;;;;;3.07;2.17;;;7.60;99.90;;;;;;5156184;27;20187;-81
2021/12/01 20:53:08;;;;;;;4.00;2.80;;;7.70;99.90;;;;;;5153205;27;20258;-80
2021/12/01 20:55:54;;;;;;;7.70;3.50;;;7.80;99.90;;;;;;5154403;27;20194;-79
2021/12/01 20:58:27;;;;;;;2.57;2.03;;;7.80;99.90;;;;;;5154846;27;20242;-77
2021/12/01 21:03:41;;;;;;;3.83;2.60;;;7.90;99.90;;;;;;5154420;27;20238;-81
2021/12/01 21:06:08;;;;;;;5.17;3.17;;;7.90;71.40;;;;;;5155234;27;20193;-80
2021/12/01 21:08:38;;;;;;;3.80;2.40;;;7.90;60.90;;;;;;5154350;27;20192;-81
2021/12/01 21:11:13;;;;;;;6.37;4.80;;;7.90;53.20;;;;;;5155144;27;20649;-80
2021/12/01 21:13:44;;;;;;;4.47;3.40;;;7.90;49.10;;;;;;5154415;27;20188;-81
2021/12/01 21:16:13;;;;;;;5.23;3.20;;;8.00;46.40;;;;;;5150931;27;20189;-80
2021/12/01 21:18:40;;;;;;;9.07;5.03;;;8.00;99.90;;;;;;5154035;27;20653;-82